createdAt,value
2019-01-10T00:17:40.938Z,10.30
2019-01-10T00:20:19.290Z,12.40
2019-01-10T00:22:55.676Z,15.17
2019-01-10T00:25:27.566Z,10.57
2019-01-10T00:28:00.201Z,14.70
2019-01-10T00:30:32.577Z,17.45
2019-01-10T00:33:08.290Z,21.12
2019-01-10T00:35:41.962Z,15.27
2019-01-10T00:38:24.681Z,13.50
2019-01-10T00:40:57.982Z,14.20
2019-01-10T00:43:44.453Z,13.37
2019-01-10T00:46:39.545Z,11.90
2019-01-10T00:49:10.927Z,14.20
2019-01-10T00:51:41.861Z,13.03
2019-01-10T00:54:17.954Z,10.77
2019-01-10T00:56:48.051Z,14.87
2019-01-10T00:59:21.936Z,11.43
2019-01-10T01:01:52.990Z,11.40
2019-01-10T01:04:25.842Z,15.43
2019-01-10T01:06:57.625Z,15.67
2019-01-10T01:09:32.998Z,13.50
2019-01-10T01:12:08.724Z,19.42
2019-01-10T01:14:42.931Z,14.87
2019-01-10T01:17:15.867Z,15.70
2019-01-10T01:19:50.211Z,16.10
2019-01-10T01:22:21.491Z,13.70
2019-01-10T01:25:09.292Z,16.83
2019-01-10T01:27:48.905Z,19.80
2019-01-10T01:30:31.700Z,15.30
2019-01-10T01:33:05.774Z,14.07
2019-01-10T01:35:39.543Z,14.37
2019-01-10T01:38:19.002Z,12.70
2019-01-10T01:40:49.150Z,14.63
2019-01-10T01:43:31.133Z,12.37
2019-01-10T01:46:03.664Z,14.80
2019-01-10T01:48:35.286Z,14.37
2019-01-10T01:51:06.738Z,11.83
2019-01-10T01:53:39.616Z,12.13
2019-01-10T01:56:14.325Z,15.33
2019-01-10T01:58:46.161Z,14.13
2019-01-10T02:01:26.415Z,19.43
2019-01-10T02:04:03.843Z,15.10
2019-01-10T02:06:37.731Z,11.93
2019-01-10T02:09:15.799Z,13.80
2019-01-10T02:11:53.759Z,11.03
2019-01-10T02:14:27.233Z,11.87
2019-01-10T02:17:01.155Z,12.57
2019-01-10T02:19:37.510Z,13.03
2019-01-10T02:22:07.368Z,13.13
2019-01-10T02:24:54.879Z,11.10
2019-01-10T02:27:26.235Z,12.90
2019-01-10T02:30:02.567Z,12.57
2019-01-10T02:32:34.738Z,10.80
2019-01-10T02:35:04.874Z,10.57
2019-01-10T02:37:41.760Z,11.80
2019-01-10T02:40:13.563Z,12.47
2019-01-10T02:42:48.238Z,27.40
2019-01-10T02:45:23.214Z,16.60
2019-01-10T02:47:53.996Z,23.00
2019-01-10T02:50:34.712Z,32.13
2019-01-10T02:53:23.529Z,45.20
2019-01-10T02:55:54.807Z,24.43
2019-01-10T02:58:27.882Z,29.70
2019-01-10T03:00:59.255Z,28.23
2019-01-10T03:03:34.136Z,30.73
2019-01-10T03:06:09.694Z,23.47
2019-01-10T03:08:45.415Z,37.50
2019-01-10T03:11:16.322Z,24.10
2019-01-10T03:13:51.977Z,25.27
2019-01-10T03:16:25.527Z,25.67
2019-01-10T03:19:05.516Z,21.97
2019-01-10T03:21:39.702Z,17.23
2019-01-10T03:24:14.559Z,15.43
2019-01-10T03:26:50.038Z,14.70
2019-01-10T03:29:19.413Z,15.83
2019-01-10T03:31:51.685Z,25.60
2019-01-10T03:34:22.035Z,21.80
2019-01-10T03:36:52.796Z,19.33
2019-01-10T03:39:26.279Z,26.73
2019-01-10T03:42:05.215Z,24.77
2019-01-10T03:44:35.278Z,26.17
2019-01-10T03:47:20.563Z,23.27
2019-01-10T03:49:54.307Z,26.43
2019-01-10T03:52:26.478Z,21.20
2019-01-10T03:55:14.944Z,19.30
2019-01-10T03:57:51.505Z,23.20
2019-01-10T04:00:31.026Z,12.97
2019-01-10T04:03:01.012Z,13.77
2019-01-10T04:05:40.017Z,14.17
2019-01-10T04:08:31.211Z,75.10
2019-01-10T04:11:10.052Z,61.90
2019-01-10T04:13:57.053Z,26.93
2019-01-10T04:16:22.320Z,26.93
2019-01-10T04:18:58.220Z,22.73
2019-01-10T04:21:38.443Z,23.60
2019-01-10T04:24:09.426Z,27.93
2019-01-10T04:26:46.122Z,24.73
2019-01-10T04:29:21.519Z,19.80
2019-01-10T04:31:51.668Z,19.23
2019-01-10T04:34:24.650Z,22.27
2019-01-10T04:36:57.487Z,18.60
2019-01-10T04:39:36.788Z,18.23
2019-01-10T04:42:09.014Z,17.40
2019-01-10T04:44:44.549Z,18.07
2019-01-10T04:47:17.191Z,19.27
2019-01-10T04:50:07.020Z,18.87
2019-01-10T05:28:09.782Z,66.47
2019-01-10T05:35:30.422Z,11.40
2019-01-10T05:52:14.232Z,22.63
2019-01-10T05:55:37.498Z,26.10
2019-01-10T06:03:01.435Z,31.13
2019-01-10T06:13:32.706Z,23.03
2019-01-10T06:16:35.433Z,21.13
2019-01-10T06:26:57.165Z,21.07
2019-01-10T06:30:19.613Z,25.00
2019-01-10T06:34:01.100Z,18.67
2019-01-10T06:37:30.428Z,17.80
2019-01-10T06:40:46.824Z,22.67
2019-01-10T06:44:16.531Z,19.87
2019-01-10T06:47:19.316Z,20.10
2019-01-10T06:50:11.555Z,19.80
2019-01-10T07:00:51.666Z,20.10
2019-01-10T07:08:02.580Z,21.23
2019-01-10T07:14:53.625Z,22.17
2019-01-10T07:21:31.663Z,17.83
2019-01-10T07:24:59.884Z,22.27
2019-01-10T07:27:59.945Z,17.50
2019-01-10T07:31:30.234Z,19.23
2019-01-10T07:45:50.844Z,22.63
2019-01-10T07:49:29.370Z,23.43
2019-01-10T07:55:50.511Z,25.70
2019-01-10T07:58:20.751Z,24.63
2019-01-10T08:00:50.319Z,23.43
2019-01-10T08:03:21.603Z,23.33
2019-01-10T08:05:51.370Z,30.90
2019-01-10T08:08:20.941Z,35.47
2019-01-10T08:10:52.221Z,31.33
2019-01-10T08:13:23.858Z,26.50
2019-01-10T08:15:54.866Z,23.40
2019-01-10T08:18:24.903Z,23.73
2019-01-10T08:20:55.132Z,23.37
2019-01-10T08:23:25.211Z,24.27
2019-01-10T08:25:55.275Z,21.97
2019-01-10T08:28:26.069Z,25.23
2019-01-10T08:30:57.662Z,19.77
2019-01-10T08:33:28.143Z,21.00
2019-01-10T08:35:59.734Z,29.07
2019-01-10T08:38:34.368Z,23.87
2019-01-10T08:41:05.324Z,26.40
2019-01-10T08:43:36.602Z,21.47
2019-01-10T08:46:18.935Z,18.00
2019-01-10T08:48:59.227Z,20.23
2019-01-10T08:54:33.933Z,24.50
2019-01-10T08:57:06.745Z,23.67
2019-01-10T08:59:37.409Z,24.17
2019-01-10T09:02:10.693Z,23.20
2019-01-10T09:04:44.494Z,19.33
2019-01-10T09:07:16.587Z,22.17
2019-01-10T09:09:49.694Z,18.57
2019-01-10T09:12:22.679Z,23.77
2019-01-10T09:14:53.985Z,20.23
2019-01-10T09:17:23.875Z,15.40
2019-01-10T09:19:57.959Z,17.23
2019-01-10T09:22:35.166Z,15.03
2019-01-10T09:25:09.868Z,15.63
2019-01-10T09:27:45.660Z,15.50
2019-01-10T09:30:38.765Z,15.03
2019-01-10T09:33:11.955Z,13.13
2019-01-10T09:35:43.507Z,18.37
2019-01-10T09:38:19.647Z,13.63
2019-01-10T09:40:50.846Z,13.50
2019-01-10T09:43:25.482Z,16.37
2019-01-10T09:45:55.859Z,16.73
2019-01-10T09:48:26.559Z,17.57
2019-01-10T09:51:00.179Z,16.70
2019-01-10T09:53:31.870Z,18.90
2019-01-10T09:56:01.886Z,14.90
2019-01-10T09:58:43.938Z,15.20
2019-01-10T10:01:14.869Z,19.27
2019-01-10T10:03:46.856Z,13.83
2019-01-10T10:06:23.266Z,14.90
2019-01-10T10:09:00.750Z,16.17
2019-01-10T10:11:34.214Z,12.07
2019-01-10T10:14:03.685Z,12.90
2019-01-10T10:16:33.995Z,16.63
2019-01-10T10:19:05.094Z,14.40
2019-01-10T10:21:40.180Z,12.67
2019-01-10T10:24:18.914Z,11.30
2019-01-10T10:26:50.271Z,11.80
2019-01-10T10:29:22.750Z,14.37
2019-01-10T10:31:53.746Z,12.57
2019-01-10T10:34:25.708Z,11.67
2019-01-10T10:36:59.461Z,11.53
2019-01-10T10:39:33.583Z,13.43
2019-01-10T10:42:06.921Z,12.53
2019-01-10T10:44:39.287Z,13.10
2019-01-10T10:47:12.669Z,14.33
2019-01-10T10:49:43.326Z,10.37
2019-01-10T10:52:16.036Z,14.47
2019-01-10T10:54:50.875Z,14.60
2019-01-10T10:57:33.244Z,11.23
2019-01-10T11:00:53.773Z,13.63
2019-01-10T11:07:48.642Z,12.13
2019-01-10T11:11:40.380Z,12.50
2019-01-10T11:14:52.400Z,10.90
2019-01-10T11:59:21.546Z,12.00
2019-01-10T12:02:41.649Z,14.47
2019-01-10T13:01:09.579Z,14.57
2019-01-10T13:08:03.975Z,12.37
2019-01-10T13:11:36.798Z,13.60
2019-01-10T13:40:26.919Z,12.17
2019-01-10T13:50:11.335Z,13.87
2019-01-10T13:53:16.612Z,12.00
2019-01-10T13:56:40.586Z,13.40
2019-01-10T13:59:46.450Z,14.13
2019-01-10T14:13:31.685Z,11.63
2019-01-10T14:17:04.479Z,16.33
2019-01-10T14:20:44.262Z,16.67
2019-01-10T14:23:58.986Z,12.33
2019-01-10T14:55:57.279Z,13.87
2019-01-10T15:07:00.313Z,13.77
2019-01-10T15:17:55.171Z,15.43
2019-01-10T15:35:29.271Z,26.17
2019-01-10T15:42:38.241Z,19.03
2019-01-10T15:50:02.654Z,19.37
2019-01-10T15:53:38.724Z,15.77
2019-01-10T16:11:02.732Z,25.23
2019-01-10T16:21:43.466Z,20.87
2019-01-10T17:46:37.301Z,10.93
2019-01-10T18:41:11.986Z,5.27
2019-01-10T18:43:43.641Z,5.67
2019-01-10T18:46:13.911Z,6.50
2019-01-10T18:48:45.578Z,4.80
2019-01-10T18:51:21.445Z,5.07
2019-01-10T18:53:52.851Z,5.70
2019-01-10T18:56:23.405Z,4.97
2019-01-10T18:59:12.977Z,5.23
2019-01-10T19:01:53.229Z,6.70
2019-01-10T19:04:25.141Z,6.40
2019-01-10T19:06:59.677Z,6.33
2019-01-10T19:09:40.125Z,6.90
2019-01-10T19:30:42.148Z,5.83
2019-01-10T19:38:33.802Z,8.60
2019-01-10T19:45:32.730Z,8.70
2019-01-10T20:00:03.548Z,8.63
2019-01-10T20:06:46.074Z,8.50
2019-01-10T20:24:58.006Z,14.33
2019-01-10T20:55:35.795Z,9.67
2019-01-10T21:10:05.877Z,11.37
2019-01-10T21:20:43.638Z,10.10
2019-01-10T21:23:48.446Z,8.33
2019-01-10T21:49:20.563Z,7.80
2019-01-10T21:56:37.642Z,7.50
2019-01-10T22:03:39.900Z,7.47
2019-01-10T22:07:04.642Z,9.47
2019-01-10T22:09:55.693Z,9.23
2019-01-10T22:16:20.061Z,8.53
2019-01-10T22:51:53.440Z,8.30
2019-01-10T23:06:59.372Z,7.20
2019-01-10T23:17:37.661Z,8.83
2019-01-10T23:20:57.577Z,7.27
2019-01-10T23:31:53.199Z,7.03
2019-01-10T23:35:02.764Z,7.80
2019-01-10T23:45:39.399Z,7.30
2019-01-10T23:48:47.508Z,7.33
2019-01-10T23:52:15.863Z,7.27
2019-01-10T23:55:45.394Z,7.90
2019-01-10T23:59:08.436Z,7.20
